Time;durP1;ratioP1;P1;durP2;ratioP2;P2;SDS_P1;SDS_P2;PMS_P1;PMS_P2;Temp;Humidity;BMP_temperature;BMP_pressure;BME280_temperature;BME280_humidity;BME280_pressure;Samples;Min_cycle;Max_cycle;Signal;HPM_P1;HPM_P2
2022/08/06 00:02:03;;;;;;;;;;;;;;;;;;5015945;28;19961;-60
2022/08/06 00:04:33;;;;;;;;;;;;;;;;;;5016535;28;19917;-60
2022/08/06 00:07:01;;;;;;;;;;;;;;;;;;5020577;28;22041;-60
2022/08/06 00:09:30;;;;;;;;;;;;;;;;;;5015321;28;19960;-60
2022/08/06 00:11:55;;;;;;;;;;;;;;;;;;5000184;28;20673;-59
2022/08/06 00:14:26;;;;;;;;;;;;;;;;;;5018821;28;19925;-60
2022/08/06 00:16:51;;;;;;;;;;;;;;;;;;5016666;28;20044;-60
2022/08/06 00:19:19;;;;;;;;;;;;;;;;;;5004727;28;19939;-60
2022/08/06 00:21:44;;;;;;;;;;;;;;;;;;5016133;28;19921;-59
2022/08/06 00:24:12;;;;;;;;;;;;;;;;;;5004768;28;20003;-60
2022/08/06 00:26:40;;;;;;;;;;;;;;;;;;5000154;28;19974;-59
2022/08/06 00:29:08;;;;;;;;;;;;;;;;;;5000263;28;19921;-59
2022/08/06 00:31:33;;;;;;;;;;;;;;;;;;5016280;28;19946;-59
2022/08/06 00:34:02;;;;;;;;;;;;;;;;;;5015067;28;19935;-61
2022/08/06 00:36:30;;;;;;;;;;;;;;;;;;5018281;28;19921;-61
2022/08/06 00:38:55;;;;;;;;;;;;;;;;;;5018543;28;21877;-61
2022/08/06 00:41:25;;;;;;;;;;;;;;;;;;5015898;28;19923;-60
2022/08/06 00:43:50;;;;;;;;;;;;;;;;;;5017488;28;19925;-60
2022/08/06 00:46:16;;;;;;;;;;;;;;;;;;5016491;28;19982;-61
2022/08/06 00:48:41;;;;;;;;;;;;;;;;;;5016329;28;20844;-61
2022/08/06 00:51:07;;;;;;;;;;;;;;;;;;5018455;28;20295;-59
2022/08/06 00:53:37;;;;;;;;;;;;;;;;;;5015250;28;20387;-58
2022/08/06 00:56:02;;;;;;;;;;;;;;;;;;5016446;28;19927;-60
2022/08/06 00:58:30;;;;;;;;;;;;;;;;;;5019682;28;19963;-60
2022/08/06 01:00:57;;;;;;;;;;;;;;;;;;5017474;28;20047;-61
2022/08/06 01:03:22;;;;;;;;;;;;;;;;;;5016175;28;19917;-59
2022/08/06 01:05:52;;;;;;;;;;;;;;;;;;5018723;28;19916;-60
2022/08/06 01:08:18;;;;;;;;;;;;;;;;;;5017740;28;20039;-60
2022/08/06 01:10:43;;;;;;;;;;;;;;;;;;5001750;28;19921;-61
2022/08/06 01:13:11;;;;;;;;;;;;;;;;;;5018174;28;20046;-59
2022/08/06 01:15:40;;;;;;;;;;;;;;;;;;5016985;28;19925;-60
2022/08/06 01:18:05;;;;;;;;;;;;;;;;;;5002744;28;19928;-60
2022/08/06 01:20:33;;;;;;;;;;;;;;;;;;5014777;28;19929;-59
2022/08/06 01:23:00;;;;;;;;;;;;;;;;;;5002292;28;20420;-60
2022/08/06 01:25:28;;;;;;;;;;;;;;;;;;5015765;28;19990;-60
2022/08/06 01:27:56;;;;;;;;;;;;;;;;;;5015296;28;19956;-60
2022/08/06 01:30:24;;;;;;;;;;;;;;;;;;5015442;28;20083;-60
2022/08/06 01:32:50;;;;;;;;;;;;;;;;;;5015671;28;20430;-59
2022/08/06 01:35:18;;;;;;;;;;;;;;;;;;5018207;28;20012;-60
2022/08/06 01:37:48;;;;;;;;;;;;;;;;;;5014802;28;20204;-60
2022/08/06 01:40:14;;;;;;;;;;;;;;;;;;5013446;28;19960;-60
2022/08/06 01:42:42;;;;;;;;;;;;;;;;;;5017248;28;19917;-61
2022/08/06 01:45:07;;;;;;;;;;;;;;;;;;5017259;28;19928;-61
2022/08/06 01:47:33;;;;;;;;;;;;;;;;;;5016238;28;20418;-60
2022/08/06 01:49:58;;;;;;;;;;;;;;;;;;5015743;28;19920;-60
2022/08/06 01:52:24;;;;;;;;;;;;;;;;;;5016050;28;19926;-59
2022/08/06 01:54:52;;;;;;;;;;;;;;;;;;5014408;28;20437;-59
2022/08/06 01:57:17;;;;;;;;;;;;;;;;;;5017682;28;19967;-60
2022/08/06 01:59:43;;;;;;;;;;;;;;;;;;5012803;28;19921;-60
2022/08/06 02:02:10;;;;;;;;;;;;;;;;;;5018461;28;19925;-60
2022/08/06 02:04:38;;;;;;;;;;;;;;;;;;5013327;28;20516;-60
2022/08/06 02:07:03;;;;;;;;;;;;;;;;;;5014963;28;19921;-58
2022/08/06 02:09:30;;;;;;;;;;;;;;;;;;5015122;28;19921;-60
2022/08/06 02:11:58;;;;;;;;;;;;;;;;;;5014462;28;19921;-60
2022/08/06 02:14:24;;;;;;;;;;;;;;;;;;5015211;28;19935;-60
2022/08/06 02:16:49;;;;;;;;;;;;;;;;;;4998985;28;20027;-61
2022/08/06 02:19:17;;;;;;;;;;;;;;;;;;5019594;28;19933;-60
2022/08/06 02:21:43;;;;;;;;;;;;;;;;;;5014524;28;19945;-60
2022/08/06 02:24:08;;;;;;;;;;;;;;;;;;5015522;28;22619;-60
2022/08/06 02:26:34;;;;;;;;;;;;;;;;;;5016143;28;19920;-60
2022/08/06 02:28:59;;;;;;;;;;;;;;;;;;5015526;28;19928;-59
2022/08/06 02:31:27;;;;;;;;;;;;;;;;;;5015744;28;19921;-60
2022/08/06 02:33:55;;;;;;;;;;;;;;;;;;5013896;28;19995;-60
2022/08/06 02:36:21;;;;;;;;;;;;;;;;;;5018548;28;20504;-59
2022/08/06 02:38:48;;;;;;;;;;;;;;;;;;5013865;28;19921;-59
2022/08/06 02:41:19;;;;;;;;;;;;;;;;;;4998439;28;19921;-60
2022/08/06 02:43:44;;;;;;;;;;;;;;;;;;5016011;28;19924;-60
2022/08/06 02:46:12;;;;;;;;;;;;;;;;;;5001897;28;19917;-60
2022/08/06 02:48:39;;;;;;;;;;;;;;;;;;5001547;28;19928;-60
2022/08/06 02:51:05;;;;;;;;;;;;;;;;;;5018952;28;20011;-60
2022/08/06 02:53:30;;;;;;;;;;;;;;;;;;5019173;28;20059;-62
2022/08/06 02:55:58;;;;;;;;;;;;;;;;;;5019419;28;19940;-59
2022/08/06 02:58:23;;;;;;;;;;;;;;;;;;5019918;28;20502;-60
2022/08/06 03:00:53;;;;;;;;;;;;;;;;;;5011549;28;20864;-60
2022/08/06 03:03:21;;;;;;;;;;;;;;;;;;5021567;28;19921;-60
2022/08/06 03:05:49;;;;;;;;;;;;;;;;;;5020042;28;19920;-60
2022/08/06 03:08:15;;;;;;;;;;;;;;;;;;5018423;28;19944;-62
2022/08/06 03:10:40;;;;;;;;;;;;;;;;;;5006247;28;19964;-61
2022/08/06 03:13:05;;;;;;;;;;;;;;;;;;5016176;28;20422;-60
2022/08/06 03:15:30;;;;;;;;;;;;;;;;;;5018441;28;21831;-60
2022/08/06 03:17:58;;;;;;;;;;;;;;;;;;5007422;28;19951;-60
2022/08/06 03:20:24;;;;;;;;;;;;;;;;;;5005121;28;19925;-61
2022/08/06 03:22:54;;;;;;;;;;;;;;;;;;5019658;28;20837;-60
2022/08/06 03:25:22;;;;;;;;;;;;;;;;;;5020090;28;19925;-60
2022/08/06 03:27:47;;;;;;;;;;;;;;;;;;5003135;28;19921;-60
2022/08/06 03:30:12;;;;;;;;;;;;;;;;;;5018518;28;19923;-61
2022/08/06 03:32:41;;;;;;;;;;;;;;;;;;5017489;28;20591;-60
2022/08/06 03:35:08;;;;;;;;;;;;;;;;;;5020772;28;19925;-60
2022/08/06 03:37:33;;;;;;;;;;;;;;;;;;5018275;28;19974;-59
2022/08/06 03:39:58;;;;;;;;;;;;;;;;;;5015923;28;19975;-60
2022/08/06 03:42:24;;;;;;;;;;;;;;;;;;5035444;28;20877;-61
2022/08/06 03:44:49;;;;;;;;;;;;;;;;;;5018604;28;19928;-60
2022/08/06 03:47:15;;;;;;;;;;;;;;;;;;5019662;28;20373;-61
2022/08/06 03:49:45;;;;;;;;;;;;;;;;;;5018441;28;19917;-60
2022/08/06 03:52:10;;;;;;;;;;;;;;;;;;5031203;28;20414;-61
2022/08/06 03:54:36;;;;;;;;;;;;;;;;;;5016361;28;19925;-61
2022/08/06 03:57:01;;;;;;;;;;;;;;;;;;5019428;28;21013;-61
2022/08/06 03:59:29;;;;;;;;;;;;;;;;;;5017428;28;20074;-60
2022/08/06 04:01:56;;;;;;;;;;;;;;;;;;5018424;28;21850;-61
2022/08/06 04:04:22;;;;;;;;;;;;;;;;;;5019634;28;19921;-61
2022/08/06 04:06:47;;;;;;;;;;;;;;;;;;5020243;28;21961;-61
2022/08/06 04:09:12;;;;;;;;;;;;;;;;;;5005752;28;20332;-60
2022/08/06 04:11:40;;;;;;;;;;;;;;;;;;5018753;28;19924;-61
2022/08/06 04:14:05;;;;;;;;;;;;;;;;;;5033294;28;19931;-61
2022/08/06 04:16:33;;;;;;;;;;;;;;;;;;5017476;28;19921;-61
2022/08/06 04:19:01;;;;;;;;;;;;;;;;;;5009083;28;20292;-60
2022/08/06 04:21:26;;;;;;;;;;;;;;;;;;5018280;28;20399;-60
2022/08/06 04:23:51;;;;;;;;;;;;;;;;;;5016916;28;20019;-61
2022/08/06 04:26:17;;;;;;;;;;;;;;;;;;5019524;28;19963;-60
2022/08/06 04:28:43;;;;;;;;;;;;;;;;;;5019531;28;19953;-61
2022/08/06 04:31:08;;;;;;;;;;;;;;;;;;5018789;28;20011;-61
2022/08/06 04:33:34;;;;;;;;;;;;;;;;;;5016561;28;19921;-61
2022/08/06 04:36:00;;;;;;;;;;;;;;;;;;5017128;28;19929;-62
2022/08/06 04:38:26;;;;;;;;;;;;;;;;;;5017035;28;19927;-61
2022/08/06 04:40:52;;;;;;;;;;;;;;;;;;5017892;28;19925;-61
2022/08/06 04:43:20;;;;;;;;;;;;;;;;;;5018130;28;20020;-62
2022/08/06 04:45:46;;;;;;;;;;;;;;;;;;5018577;28;19927;-61
2022/08/06 04:48:11;;;;;;;;;;;;;;;;;;5017420;28;20054;-60
2022/08/06 04:50:41;;;;;;;;;;;;;;;;;;5016488;28;19916;-61
2022/08/06 04:53:06;;;;;;;;;;;;;;;;;;5031039;28;20342;-60
2022/08/06 04:55:32;;;;;;;;;;;;;;;;;;5015229;28;19925;-60
2022/08/06 04:57:57;;;;;;;;;;;;;;;;;;5017244;28;19920;-61
2022/08/06 05:00:25;;;;;;;;;;;;;;;;;;5020086;28;19928;-61
2022/08/06 05:02:50;;;;;;;;;;;;;;;;;;4999225;28;19921;-60
2022/08/06 05:05:16;;;;;;;;;;;;;;;;;;5017561;28;19999;-61
2022/08/06 05:07:43;;;;;;;;;;;;;;;;;;5017553;28;19917;-60
2022/08/06 05:10:11;;;;;;;;;;;;;;;;;;5017284;28;20022;-60
2022/08/06 05:12:39;;;;;;;;;;;;;;;;;;5018575;28;19974;-61
2022/08/06 05:15:05;;;;;;;;;;;;;;;;;;5015205;28;19947;-61
2022/08/06 05:17:32;;;;;;;;;;;;;;;;;;5018407;28;19921;-60
2022/08/06 05:19:58;;;;;;;;;;;;;;;;;;5015533;28;19936;-61
2022/08/06 05:22:26;;;;;;;;;;;;;;;;;;5014968;28;20039;-61
2022/08/06 05:24:54;;;;;;;;;;;;;;;;;;5016133;28;19963;-61
2022/08/06 05:27:19;;;;;;;;;;;;;;;;;;5016754;28;20003;-61
2022/08/06 05:29:44;;;;;;;;;;;;;;;;;;5017397;28;19931;-61
2022/08/06 05:32:12;;;;;;;;;;;;;;;;;;5017662;28;19959;-61
2022/08/06 05:34:37;;;;;;;;;;;;;;;;;;5015725;28;19925;-62
2022/08/06 05:37:03;;;;;;;;;;;;;;;;;;5015974;28;19921;-62
2022/08/06 05:39:28;;;;;;;;;;;;;;;;;;5018353;28;19917;-62
2022/08/06 05:41:53;;;;;;;;;;;;;;;;;;5015521;28;22291;-62
2022/08/06 05:44:22;;;;;;;;;;;;;;;;;;5020120;28;19948;-62
2022/08/06 05:46:49;;;;;;;;;;;;;;;;;;5003090;28;20015;-62
2022/08/06 05:49:17;;;;;;;;;;;;;;;;;;5016386;28;19956;-61
2022/08/06 05:51:43;;;;;;;;;;;;;;;;;;5017402;28;20016;-61
2022/08/06 05:54:08;;;;;;;;;;;;;;;;;;5015528;28;21317;-60
2022/08/06 05:56:33;;;;;;;;;;;;;;;;;;5016737;28;19920;-60
2022/08/06 05:58:59;;;;;;;;;;;;;;;;;;5016921;28;19924;-60
2022/08/06 06:01:24;;;;;;;;;;;;;;;;;;5016832;28;19920;-61
2022/08/06 06:03:53;;;;;;;;;;;;;;;;;;5015081;28;19924;-61
2022/08/06 06:06:21;;;;;;;;;;;;;;;;;;5015404;28;19984;-60
2022/08/06 06:08:46;;;;;;;;;;;;;;;;;;5015318;28;19932;-62
2022/08/06 06:11:11;;;;;;;;;;;;;;;;;;5017128;28;19948;-62
2022/08/06 06:13:39;;;;;;;;;;;;;;;;;;5015461;28;20391;-62
2022/08/06 06:16:07;;;;;;;;;;;;;;;;;;5014347;28;19931;-62
2022/08/06 06:18:36;;;;;;;;;;;;;;;;;;5004388;28;20056;-61
2022/08/06 06:21:02;;;;;;;;;;;;;;;;;;5015132;28;19927;-62
2022/08/06 06:23:27;;;;;;;;;;;;;;;;;;5016846;28;19921;-61
2022/08/06 06:25:53;;;;;;;;;;;;;;;;;;5015806;28;19966;-62
2022/08/06 06:28:21;;;;;;;;;;;;;;;;;;5015001;28;19920;-62
2022/08/06 06:30:49;;;;;;;;;;;;;;;;;;5018169;28;19917;-62
2022/08/06 06:33:16;;;;;;;;;;;;;;;;;;5018130;28;22183;-62
2022/08/06 06:35:42;;;;;;;;;;;;;;;;;;5016113;28;20027;-62
2022/08/06 06:38:07;;;;;;;;;;;;;;;;;;5013361;28;20649;-62
2022/08/06 06:40:33;;;;;;;;;;;;;;;;;;5014264;28;19923;-60
2022/08/06 06:42:59;;;;;;;;;;;;;;;;;;5014863;28;19924;-61
2022/08/06 06:45:24;;;;;;;;;;;;;;;;;;5019266;28;19926;-63
2022/08/06 06:47:54;;;;;;;;;;;;;;;;;;4998427;28;19928;-62
2022/08/06 06:50:19;;;;;;;;;;;;;;;;;;5029501;28;19983;-61
2022/08/06 06:52:50;;;;;;;;;;;;;;;;;;5014801;28;19967;-62
2022/08/06 06:55:15;;;;;;;;;;;;;;;;;;5015984;28;19925;-63
2022/08/06 06:57:40;;;;;;;;;;;;;;;;;;5013199;28;20426;-63
2022/08/06 07:00:08;;;;;;;;;;;;;;;;;;5017444;28;20015;-61
2022/08/06 07:02:34;;;;;;;;;;;;;;;;;;5015536;28;19967;-63
2022/08/06 07:05:04;;;;;;;;;;;;;;;;;;5016560;28;20431;-63
2022/08/06 07:07:32;;;;;;;;;;;;;;;;;;5000701;28;19921;-62
2022/08/06 07:09:57;;;;;;;;;;;;;;;;;;5018083;28;19968;-62
2022/08/06 07:12:23;;;;;;;;;;;;;;;;;;5016862;28;20289;-60
2022/08/06 07:14:49;;;;;;;;;;;;;;;;;;5014865;28;19925;-62
2022/08/06 07:17:18;;;;;;;;;;;;;;;;;;4997445;28;19924;-62
2022/08/06 07:19:46;;;;;;;;;;;;;;;;;;5001396;28;19933;-60
2022/08/06 07:22:13;;;;;;;;;;;;;;;;;;5016069;28;21057;-62
2022/08/06 07:24:39;;;;;;;;;;;;;;;;;;5011660;28;19938;-62
2022/08/06 07:27:06;;;;;;;;;;;;;;;;;;5002077;28;19921;-61
2022/08/06 07:29:32;;;;;;;;;;;;;;;;;;4997729;28;19971;-61
2022/08/06 07:32:00;;;;;;;;;;;;;;;;;;5014776;28;19917;-62
2022/08/06 07:34:26;;;;;;;;;;;;;;;;;;5015038;28;19999;-62
2022/08/06 07:36:51;;;;;;;;;;;;;;;;;;5013802;28;20360;-63
2022/08/06 07:39:16;;;;;;;;;;;;;;;;;;5018894;28;20020;-64
2022/08/06 07:41:44;;;;;;;;;;;;;;;;;;5000803;28;20016;-63
2022/08/06 07:44:09;;;;;;;;;;;;;;;;;;5018479;28;19916;-61
2022/08/06 07:46:37;;;;;;;;;;;;;;;;;;5019036;28;19943;-62
2022/08/06 07:49:04;;;;;;;;;;;;;;;;;;5022311;28;19967;-63
2022/08/06 07:51:32;;;;;;;;;;;;;;;;;;5017137;28;20000;-63
2022/08/06 07:54:03;;;;;;;;;;;;;;;;;;5016594;28;20854;-63
2022/08/06 07:56:33;;;;;;;;;;;;;;;;;;5001667;28;19921;-64
2022/08/06 07:58:58;;;;;;;;;;;;;;;;;;5020822;28;19923;-62
2022/08/06 08:01:24;;;;;;;;;;;;;;;;;;5034868;28;19917;-62
2022/08/06 08:06:35;;;;;;;;;;;;;;;;;;5021701;28;19924;-62
2022/08/06 08:09:03;;;;;;;;;;;;;;;;;;5018459;28;19921;-62
2022/08/06 08:11:28;;;;;;;;;;;;;;;;;;5017105;28;19929;-61
2022/08/06 08:13:54;;;;;;;;;;;;;;;;;;5005186;28;19932;-62
2022/08/06 08:16:23;;;;;;;;;;;;;;;;;;5017247;28;19921;-62
2022/08/06 08:18:49;;;;;;;;;;;;;;;;;;5020334;28;20548;-62
2022/08/06 08:21:15;;;;;;;;;;;;;;;;;;5002372;28;19972;-62
2022/08/06 08:23:42;;;;;;;;;;;;;;;;;;5018148;28;20019;-62
2022/08/06 08:26:08;;;;;;;;;;;;;;;;;;5019754;28;19917;-62
2022/08/06 08:28:36;;;;;;;;;;;;;;;;;;5021517;28;19917;-61
2022/08/06 08:31:11;;;;;;;;;;;;;;;;;;5017412;28;19946;-62
2022/08/06 08:33:39;;;;;;;;;;;;;;;;;;5019673;28;21795;-62
2022/08/06 08:36:06;;;;;;;;;;;;;;;;;;5014412;28;19921;-60
2022/08/06 08:38:32;;;;;;;;;;;;;;;;;;5019053;28;20507;-59
2022/08/06 08:40:57;;;;;;;;;;;;;;;;;;5017188;28;19972;-61
2022/08/06 08:43:23;;;;;;;;;;;;;;;;;;5020525;28;20489;-63
2022/08/06 08:45:51;;;;;;;;;;;;;;;;;;5001404;28;19925;-62
2022/08/06 08:48:19;;;;;;;;;;;;;;;;;;5016661;28;19932;-62
2022/08/06 08:50:45;;;;;;;;;;;;;;;;;;5019986;28;19916;-63
2022/08/06 08:53:10;;;;;;;;;;;;;;;;;;5004097;28;20083;-62
2022/08/06 08:55:39;;;;;;;;;;;;;;;;;;4998169;28;19917;-64
2022/08/06 08:58:04;;;;;;;;;;;;;;;;;;5017194;28;19920;-65
2022/08/06 09:00:32;;;;;;;;;;;;;;;;;;5016031;28;19948;-64
2022/08/06 09:02:57;;;;;;;;;;;;;;;;;;5015880;28;21952;-63
2022/08/06 09:05:25;;;;;;;;;;;;;;;;;;5017119;28;20035;-62
2022/08/06 09:07:51;;;;;;;;;;;;;;;;;;5014954;28;20418;-63
2022/08/06 09:10:16;;;;;;;;;;;;;;;;;;5016651;28;19925;-63
2022/08/06 09:12:42;;;;;;;;;;;;;;;;;;5015541;28;20369;-63
2022/08/06 09:15:07;;;;;;;;;;;;;;;;;;5017965;28;19972;-63
2022/08/06 09:17:35;;;;;;;;;;;;;;;;;;4999740;28;19928;-61
2022/08/06 09:20:03;;;;;;;;;;;;;;;;;;5016801;28;21267;-62
2022/08/06 09:22:28;;;;;;;;;;;;;;;;;;5016796;28;19968;-62
2022/08/06 09:24:55;;;;;;;;;;;;;;;;;;5016419;28;19925;-62
2022/08/06 09:27:23;;;;;;;;;;;;;;;;;;5014892;28;19927;-64
2022/08/06 09:29:48;;;;;;;;;;;;;;;;;;5014046;28;20351;-62
2022/08/06 09:32:14;;;;;;;;;;;;;;;;;;5017736;28;19921;-62
2022/08/06 09:34:43;;;;;;;;;;;;;;;;;;5016054;28;19948;-61
2022/08/06 09:37:08;;;;;;;;;;;;;;;;;;4998745;28;19960;-61
2022/08/06 09:39:39;;;;;;;;;;;;;;;;;;5016691;28;19921;-61
2022/08/06 09:42:04;;;;;;;;;;;;;;;;;;5032778;28;20647;-61
2022/08/06 09:44:30;;;;;;;;;;;;;;;;;;5017021;28;19924;-62
2022/08/06 09:46:57;;;;;;;;;;;;;;;;;;5018166;28;21959;-61
2022/08/06 09:49:22;;;;;;;;;;;;;;;;;;5015400;28;19917;-63
2022/08/06 09:51:48;;;;;;;;;;;;;;;;;;5017673;28;19929;-61
2022/08/06 09:54:16;;;;;;;;;;;;;;;;;;4998956;28;20607;-64
2022/08/06 09:56:41;;;;;;;;;;;;;;;;;;5015331;28;19932;-62
2022/08/06 09:59:06;;;;;;;;;;;;;;;;;;5015614;28;20544;-63
2022/08/06 10:01:34;;;;;;;;;;;;;;;;;;5015429;28;20397;-63
2022/08/06 10:04:01;;;;;;;;;;;;;;;;;;5003128;28;19929;-64
2022/08/06 10:06:29;;;;;;;;;;;;;;;;;;5017272;28;20492;-65
2022/08/06 10:08:57;;;;;;;;;;;;;;;;;;5016093;28;20019;-63
2022/08/06 10:11:22;;;;;;;;;;;;;;;;;;5016137;28;19967;-63
2022/08/06 10:13:50;;;;;;;;;;;;;;;;;;5016527;28;19917;-65
2022/08/06 10:16:15;;;;;;;;;;;;;;;;;;5015897;28;19928;-63
2022/08/06 10:18:43;;;;;;;;;;;;;;;;;;4999927;28;21804;-62
2022/08/06 10:21:16;;;;;;;;;;;;;;;;;;5017716;28;20035;-64
2022/08/06 10:23:42;;;;;;;;;;;;;;;;;;5000138;28;19962;-65
2022/08/06 10:26:07;;;;;;;;;;;;;;;;;;5016968;28;19924;-63
2022/08/06 10:28:32;;;;;;;;;;;;;;;;;;5016274;28;19921;-64
2022/08/06 10:30:58;;;;;;;;;;;;;;;;;;5014647;28;20395;-62
2022/08/06 10:33:24;;;;;;;;;;;;;;;;;;5014939;28;19932;-62
2022/08/06 10:35:50;;;;;;;;;;;;;;;;;;5015153;28;19921;-61
2022/08/06 10:38:15;;;;;;;;;;;;;;;;;;5013133;28;21848;-61
2022/08/06 10:40:40;;;;;;;;;;;;;;;;;;5017887;28;19952;-63
2022/08/06 10:43:08;;;;;;;;;;;;;;;;;;5017235;28;20007;-63
2022/08/06 10:45:34;;;;;;;;;;;;;;;;;;5015661;28;20849;-63
2022/08/06 10:47:59;;;;;;;;;;;;;;;;;;5017326;28;20473;-62
2022/08/06 10:50:25;;;;;;;;;;;;;;;;;;5016888;28;19917;-63
2022/08/06 10:52:53;;;;;;;;;;;;;;;;;;5017317;28;19922;-62
2022/08/06 10:55:20;;;;;;;;;;;;;;;;;;5013569;28;19986;-63
2022/08/06 10:57:50;;;;;;;;;;;;;;;;;;5015117;28;19921;-63
2022/08/06 11:00:18;;;;;;;;;;;;;;;;;;4999029;28;19935;-63
2022/08/06 11:02:46;;;;;;;;;;;;;;;;;;4996893;28;20983;-64
2022/08/06 11:05:11;;;;;;;;;;;;;;;;;;5032112;28;19925;-63
2022/08/06 11:07:36;;;;;;;;;;;;;;;;;;4998708;28;20537;-63
2022/08/06 11:10:04;;;;;;;;;;;;;;;;;;5013923;28;20051;-62
2022/08/06 11:12:32;;;;;;;;;;;;;;;;;;5004593;28;19921;-61
2022/08/06 11:14:59;;;;;;;;;;;;;;;;;;5020973;28;19999;-61
2022/08/06 11:17:24;;;;;;;;;;;;;;;;;;5019963;28;19920;-63
2022/08/06 11:19:50;;;;;;;;;;;;;;;;;;5019167;28;19933;-63
2022/08/06 11:22:15;;;;;;;;;;;;;;;;;;5017929;28;19924;-62
2022/08/06 11:24:40;;;;;;;;;;;;;;;;;;5019786;28;19969;-63
2022/08/06 11:27:06;;;;;;;;;;;;;;;;;;5016300;28;20392;-62
2022/08/06 11:29:33;;;;;;;;;;;;;;;;;;5018619;28;20788;-62
2022/08/06 11:31:59;;;;;;;;;;;;;;;;;;5019541;28;19916;-63
2022/08/06 11:34:26;;;;;;;;;;;;;;;;;;5021634;28;20225;-64
2022/08/06 11:36:55;;;;;;;;;;;;;;;;;;5018916;28;20820;-64
2022/08/06 11:39:21;;;;;;;;;;;;;;;;;;5001386;28;20059;-63
2022/08/06 11:41:47;;;;;;;;;;;;;;;;;;5019159;28;19939;-63
2022/08/06 11:44:17;;;;;;;;;;;;;;;;;;5018766;28;19928;-61
2022/08/06 11:46:45;;;;;;;;;;;;;;;;;;5019588;28;19987;-62
2022/08/06 11:49:10;;;;;;;;;;;;;;;;;;5019083;28;20375;-62
2022/08/06 11:51:35;;;;;;;;;;;;;;;;;;5015026;28;20010;-62
2022/08/06 11:54:01;;;;;;;;;;;;;;;;;;5017481;28;19921;-63
2022/08/06 11:56:29;;;;;;;;;;;;;;;;;;5018280;28;19957;-61
2022/08/06 11:58:54;;;;;;;;;;;;;;;;;;5021811;28;20064;-63
2022/08/06 12:01:20;;;;;;;;;;;;;;;;;;5016425;28;20010;-62
2022/08/06 12:03:46;;;;;;;;;;;;;;;;;;5018715;28;19925;-62
2022/08/06 12:06:11;;;;;;;;;;;;;;;;;;5001848;28;19996;-62
2022/08/06 12:08:41;;;;;;;;;;;;;;;;;;5000143;28;20015;-61
2022/08/06 12:11:07;;;;;;;;;;;;;;;;;;5018301;28;20059;-61
2022/08/06 12:13:32;;;;;;;;;;;;;;;;;;5018333;28;20420;-61
2022/08/06 12:16:02;;;;;;;;;;;;;;;;;;5016487;28;19995;-62
2022/08/06 12:18:30;;;;;;;;;;;;;;;;;;5017578;28;19921;-62
2022/08/06 12:20:55;;;;;;;;;;;;;;;;;;5000452;28;19927;-61
2022/08/06 12:23:21;;;;;;;;;;;;;;;;;;5018305;28;19917;-62
2022/08/06 12:25:49;;;;;;;;;;;;;;;;;;5016834;28;19925;-62
2022/08/06 12:28:15;;;;;;;;;;;;;;;;;;5017219;28;19921;-62
2022/08/06 12:30:48;;;;;;;;;;;;;;;;;;5017935;28;19979;-60
2022/08/06 12:33:13;;;;;;;;;;;;;;;;;;5001400;28;19920;-61
2022/08/06 12:35:38;;;;;;;;;;;;;;;;;;5017403;28;20468;-62
2022/08/06 12:38:06;;;;;;;;;;;;;;;;;;5017122;28;20024;-60
2022/08/06 12:40:34;;;;;;;;;;;;;;;;;;5016952;28;19916;-60
2022/08/06 12:43:01;;;;;;;;;;;;;;;;;;5019101;28;20690;-62
2022/08/06 12:45:29;;;;;;;;;;;;;;;;;;5004534;28;20521;-62
2022/08/06 12:47:57;;;;;;;;;;;;;;;;;;5018801;28;20786;-61
2022/08/06 12:50:23;;;;;;;;;;;;;;;;;;5017387;28;19948;-61
2022/08/06 12:52:48;;;;;;;;;;;;;;;;;;5018223;28;19985;-62
2022/08/06 12:55:14;;;;;;;;;;;;;;;;;;5000405;28;19921;-61
2022/08/06 12:57:41;;;;;;;;;;;;;;;;;;5016724;28;20131;-63
2022/08/06 13:00:09;;;;;;;;;;;;;;;;;;5016101;28;20047;-62
2022/08/06 13:02:37;;;;;;;;;;;;;;;;;;5020259;28;19983;-63
2022/08/06 13:05:02;;;;;;;;;;;;;;;;;;4999344;28;21922;-63
2022/08/06 13:07:27;;;;;;;;;;;;;;;;;;5003491;28;20284;-62
2022/08/06 13:09:53;;;;;;;;;;;;;;;;;;5017618;28;19925;-62
2022/08/06 13:12:18;;;;;;;;;;;;;;;;;;5015551;28;20486;-61
2022/08/06 13:14:44;;;;;;;;;;;;;;;;;;5015444;28;19916;-61
2022/08/06 13:17:09;;;;;;;;;;;;;;;;;;5016396;28;19971;-62
2022/08/06 13:19:37;;;;;;;;;;;;;;;;;;5017822;28;19925;-61
2022/08/06 13:22:03;;;;;;;;;;;;;;;;;;5015391;28;19983;-63
2022/08/06 13:24:31;;;;;;;;;;;;;;;;;;5016775;28;19933;-63
2022/08/06 13:26:57;;;;;;;;;;;;;;;;;;5013732;28;20342;-62
2022/08/06 13:29:23;;;;;;;;;;;;;;;;;;4998737;28;20051;-62
2022/08/06 13:31:48;;;;;;;;;;;;;;;;;;5003978;28;19949;-63
2022/08/06 13:34:14;;;;;;;;;;;;;;;;;;5014407;28;19928;-63
2022/08/06 13:36:42;;;;;;;;;;;;;;;;;;5019685;28;20039;-62
2022/08/06 13:39:09;;;;;;;;;;;;;;;;;;5014970;28;19921;-62
2022/08/06 13:41:37;;;;;;;;;;;;;;;;;;5001356;28;19921;-62
2022/08/06 13:44:02;;;;;;;;;;;;;;;;;;5015732;28;19932;-62
2022/08/06 13:46:28;;;;;;;;;;;;;;;;;;5014979;28;19936;-62
2022/08/06 13:48:53;;;;;;;;;;;;;;;;;;5015503;28;20393;-60
2022/08/06 13:51:18;;;;;;;;;;;;;;;;;;5018236;28;19921;-61
2022/08/06 13:53:44;;;;;;;;;;;;;;;;;;5013879;28;20509;-62
2022/08/06 13:56:12;;;;;;;;;;;;;;;;;;5016530;28;20444;-62
2022/08/06 13:58:40;;;;;;;;;;;;;;;;;;5013715;28;19968;-62
2022/08/06 14:01:05;;;;;;;;;;;;;;;;;;5016515;28;20012;-61
2022/08/06 14:03:33;;;;;;;;;;;;;;;;;;5017326;28;20035;-61
2022/08/06 14:05:58;;;;;;;;;;;;;;;;;;5013540;28;19925;-61
2022/08/06 14:08:28;;;;;;;;;;;;;;;;;;5017408;28;21203;-61
2022/08/06 14:10:56;;;;;;;;;;;;;;;;;;5015550;28;19927;-61
2022/08/06 14:13:21;;;;;;;;;;;;;;;;;;5002210;28;19917;-61
2022/08/06 14:15:47;;;;;;;;;;;;;;;;;;5017266;28;19920;-61
2022/08/06 14:18:17;;;;;;;;;;;;;;;;;;5014847;28;19925;-62
2022/08/06 14:20:42;;;;;;;;;;;;;;;;;;4996560;28;20581;-62
2022/08/06 14:23:07;;;;;;;;;;;;;;;;;;4994132;28;19921;-61
2022/08/06 14:25:36;;;;;;;;;;;;;;;;;;4995386;28;20384;-61
2022/08/06 14:28:04;;;;;;;;;;;;;;;;;;4996238;28;20547;-62
2022/08/06 14:30:34;;;;;;;;;;;;;;;;;;4993077;28;19961;-61
2022/08/06 14:33:00;;;;;;;;;;;;;;;;;;4994960;28;19929;-64
2022/08/06 14:35:26;;;;;;;;;;;;;;;;;;4993210;28;19975;-62
2022/08/06 14:37:54;;;;;;;;;;;;;;;;;;4998668;28;20016;-62
2022/08/06 14:45:51;;;;;;;;;;;;;;;;;;4980244;28;19999;-59
2022/08/06 14:48:17;;;;;;;;;;;;;;;;;;4996655;28;20392;-61
2022/08/06 14:50:42;;;;;;;;;;;;;;;;;;4994808;28;20019;-61
2022/08/06 14:53:08;;;;;;;;;;;;;;;;;;4995302;28;20278;-61
2022/08/06 14:55:38;;;;;;;;;;;;;;;;;;4977288;28;19922;-61
2022/08/06 14:58:03;;;;;;;;;;;;;;;;;;4996357;28;20007;-60
2022/08/06 15:00:29;;;;;;;;;;;;;;;;;;4995348;28;19925;-62
2022/08/06 15:02:54;;;;;;;;;;;;;;;;;;4994889;28;19963;-60
2022/08/06 15:05:22;;;;;;;;;;;;;;;;;;4993730;28;20542;-60
2022/08/06 15:07:47;;;;;;;;;;;;;;;;;;4993585;28;19949;-61
2022/08/06 15:10:13;;;;;;;;;;;;;;;;;;4995323;28;20830;-60
2022/08/06 15:12:38;;;;;;;;;;;;;;;;;;4995794;28;19967;-59
2022/08/06 15:15:04;;;;;;;;;;;;;;;;;;4994637;28;19921;-61
2022/08/06 15:17:29;;;;;;;;;;;;;;;;;;4995490;28;19964;-60
2022/08/06 15:19:55;;;;;;;;;;;;;;;;;;5007045;28;19956;-60
2022/08/06 15:22:20;;;;;;;;;;;;;;;;;;5018631;28;19917;-59
2022/08/06 15:24:45;;;;;;;;;;;;;;;;;;5016661;28;19921;-60
2022/08/06 15:27:19;;;;;;;;;;;;;;;;;;5016199;28;19952;-59
2022/08/06 15:29:46;;;;;;;;;;;;;;;;;;4999402;28;19976;-60
2022/08/06 15:32:12;;;;;;;;;;;;;;;;;;5015076;28;19921;-58
2022/08/06 15:34:38;;;;;;;;;;;;;;;;;;5013441;28;19925;-59
2022/08/06 15:37:05;;;;;;;;;;;;;;;;;;5014331;28;19921;-60
2022/08/06 15:39:32;;;;;;;;;;;;;;;;;;5014015;28;19936;-58
2022/08/06 15:42:00;;;;;;;;;;;;;;;;;;4998414;28;19963;-58
2022/08/06 15:44:25;;;;;;;;;;;;;;;;;;5014053;28;20063;-59
2022/08/06 15:46:53;;;;;;;;;;;;;;;;;;5015783;28;20430;-60
2022/08/06 15:49:21;;;;;;;;;;;;;;;;;;5017470;28;20187;-60
2022/08/06 15:51:47;;;;;;;;;;;;;;;;;;5014654;28;19948;-60
2022/08/06 15:54:14;;;;;;;;;;;;;;;;;;4998319;28;19934;-60
2022/08/06 15:56:42;;;;;;;;;;;;;;;;;;5011127;28;20423;-60
2022/08/06 15:59:07;;;;;;;;;;;;;;;;;;5016633;28;19921;-59
2022/08/06 16:01:33;;;;;;;;;;;;;;;;;;5021670;28;19996;-58
2022/08/06 16:03:59;;;;;;;;;;;;;;;;;;5016906;28;20545;-59
2022/08/06 16:06:29;;;;;;;;;;;;;;;;;;5021396;28;19917;-60
2022/08/06 16:08:54;;;;;;;;;;;;;;;;;;5002132;28;20410;-59
2022/08/06 16:11:20;;;;;;;;;;;;;;;;;;5017234;28;19916;-60
2022/08/06 16:13:48;;;;;;;;;;;;;;;;;;5021426;28;20048;-58
2022/08/06 16:16:15;;;;;;;;;;;;;;;;;;5015224;28;19921;-60
2022/08/06 16:18:42;;;;;;;;;;;;;;;;;;5015320;28;19966;-60
2022/08/06 16:21:07;;;;;;;;;;;;;;;;;;5018555;28;19917;-59
2022/08/06 16:23:38;;;;;;;;;;;;;;;;;;5017169;28;19945;-60
2022/08/06 16:26:06;;;;;;;;;;;;;;;;;;5001756;28;19928;-60
2022/08/06 16:28:34;;;;;;;;;;;;;;;;;;5016929;28;20296;-60
2022/08/06 16:30:59;;;;;;;;;;;;;;;;;;5014429;28;19917;-60
2022/08/06 16:33:27;;;;;;;;;;;;;;;;;;5014532;28;20968;-60
2022/08/06 16:35:55;;;;;;;;;;;;;;;;;;5018051;28;19921;-61
2022/08/06 16:38:25;;;;;;;;;;;;;;;;;;5017071;28;20044;-59
2022/08/06 16:40:53;;;;;;;;;;;;;;;;;;5003307;28;19990;-60
2022/08/06 16:43:18;;;;;;;;;;;;;;;;;;5017711;28;19924;-60
2022/08/06 16:45:46;;;;;;;;;;;;;;;;;;5018164;28;20434;-60
2022/08/06 16:48:13;;;;;;;;;;;;;;;;;;5017312;28;19925;-59
2022/08/06 16:50:38;;;;;;;;;;;;;;;;;;5014657;28;19936;-59